<?xml version="1.0" encoding="UTF-8" standalone="no" ?>
<gpx xmlns="http://www.topografix.com/GPX/1/1" xmlns:xsi="http://www.w3.org/2001/XMLSchema-instance" xsi:schemaLocation="http://www.topografix.com/GPX/1/1 http://www.topografix.com/GPX/1/1/gpx.xsd" version="1.1" creator="VisuGPX - https://www.visugpx.com">
  <metadata>
    <name>ROCHEFORT EN TERRE MATIN (Pluherlin)</name>
    <desc><![CDATA[Pluherlin parking pres de l\'église, déjeuner au bar des sports entrée du village.]]></desc>
  </metadata>
  <trk>
    <name><![CDATA[ROCHEFORT EN TERRE MATIN (Pluherlin)_1]]></name>
    <trkseg>
      <trkpt lat="47.69588" lon="-2.36354">
        <ele>45</ele>
        <time>2012-05-25T07:46:54</time>
      </trkpt>
      <trkpt lat="47.69587" lon="-2.36355">
        <ele>45</ele>
        <time>2012-05-25T07:47:24</time>
      </trkpt>
      <trkpt lat="47.69588" lon="-2.36356">
        <ele>45</ele>
        <time>2012-05-25T07:47:54</time>
      </trkpt>
      <trkpt lat="47.69589" lon="-2.36356">
        <ele>44</ele>
        <time>2012-05-25T07:48:24</time>
      </trkpt>
      <trkpt lat="47.69596" lon="-2.36371">
        <ele>44</ele>
        <time>2012-05-25T07:48:54</time>
      </trkpt>
      <trkpt lat="47.69609" lon="-2.36398">
        <ele>44</ele>
        <time>2012-05-25T07:49:24</time>
      </trkpt>
      <trkpt lat="47.69614" lon="-2.36429">
        <ele>44</ele>
        <time>2012-05-25T07:49:55</time>
      </trkpt>
      <trkpt lat="47.69613" lon="-2.36427">
        <ele>44</ele>
        <time>2012-05-25T07:50:25</time>
      </trkpt>
      <trkpt lat="47.69626" lon="-2.36463">
        <ele>43</ele>
        <time>2012-05-25T07:50:55</time>
      </trkpt>
      <trkpt lat="47.6964" lon="-2.3651">
        <ele>43</ele>
        <time>2012-05-25T07:51:25</time>
      </trkpt>
      <trkpt lat="47.69659" lon="-2.36556">
        <ele>43</ele>
        <time>2012-05-25T07:51:55</time>
      </trkpt>
      <trkpt lat="47.69676" lon="-2.36604">
        <ele>42</ele>
        <time>2012-05-25T07:52:26</time>
      </trkpt>
      <trkpt lat="47.6969" lon="-2.36652">
        <ele>42</ele>
        <time>2012-05-25T07:52:56</time>
      </trkpt>
      <trkpt lat="47.69698" lon="-2.36703">
        <ele>41</ele>
        <time>2012-05-25T07:53:26</time>
      </trkpt>
      <trkpt lat="47.69695" lon="-2.36754">
        <ele>42</ele>
        <time>2012-05-25T07:53:56</time>
      </trkpt>
      <trkpt lat="47.69689" lon="-2.36806">
        <ele>43</ele>
        <time>2012-05-25T07:54:26</time>
      </trkpt>
      <trkpt lat="47.69691" lon="-2.3686">
        <ele>41</ele>
        <time>2012-05-25T07:54:57</time>
      </trkpt>
      <trkpt lat="47.69695" lon="-2.36913">
        <ele>40</ele>
        <time>2012-05-25T07:55:27</time>
      </trkpt>
      <trkpt lat="47.69701" lon="-2.36963">
        <ele>39</ele>
        <time>2012-05-25T07:55:57</time>
      </trkpt>
      <trkpt lat="47.69706" lon="-2.37012">
        <ele>39</ele>
        <time>2012-05-25T07:56:27</time>
      </trkpt>
      <trkpt lat="47.69715" lon="-2.37064">
        <ele>40</ele>
        <time>2012-05-25T07:56:57</time>
      </trkpt>
      <trkpt lat="47.6972" lon="-2.37118">
        <ele>41</ele>
        <time>2012-05-25T07:57:28</time>
      </trkpt>
      <trkpt lat="47.69724" lon="-2.37169">
        <ele>40</ele>
        <time>2012-05-25T07:57:58</time>
      </trkpt>
      <trkpt lat="47.69723" lon="-2.37223">
        <ele>39</ele>
        <time>2012-05-25T07:58:28</time>
      </trkpt>
      <trkpt lat="47.69716" lon="-2.37273">
        <ele>37</ele>
        <time>2012-05-25T07:58:58</time>
      </trkpt>
      <trkpt lat="47.69718" lon="-2.37329">
        <ele>36</ele>
        <time>2012-05-25T07:59:28</time>
      </trkpt>
      <trkpt lat="47.69727" lon="-2.37382">
        <ele>36</ele>
        <time>2012-05-25T07:59:59</time>
      </trkpt>
      <trkpt lat="47.69741" lon="-2.37433">
        <ele>35</ele>
        <time>2012-05-25T08:00:29</time>
      </trkpt>
      <trkpt lat="47.69751" lon="-2.37491">
        <ele>35</ele>
        <time>2012-05-25T08:00:59</time>
      </trkpt>
      <trkpt lat="47.69761" lon="-2.37528">
        <ele>35</ele>
        <time>2012-05-25T08:01:29</time>
      </trkpt>
      <trkpt lat="47.69769" lon="-2.37581">
        <ele>37</ele>
        <time>2012-05-25T08:02:00</time>
      </trkpt>
      <trkpt lat="47.69773" lon="-2.37632">
        <ele>39</ele>
        <time>2012-05-25T08:02:30</time>
      </trkpt>
      <trkpt lat="47.69785" lon="-2.37693">
        <ele>39</ele>
        <time>2012-05-25T08:03:00</time>
      </trkpt>
      <trkpt lat="47.69797" lon="-2.37752">
        <ele>40</ele>
        <time>2012-05-25T08:03:30</time>
      </trkpt>
      <trkpt lat="47.69798" lon="-2.37807">
        <ele>39</ele>
        <time>2012-05-25T08:04:00</time>
      </trkpt>
      <trkpt lat="47.69796" lon="-2.37864">
        <ele>40</ele>
        <time>2012-05-25T08:04:30</time>
      </trkpt>
      <trkpt lat="47.69801" lon="-2.37923">
        <ele>41</ele>
        <time>2012-05-25T08:05:01</time>
      </trkpt>
      <trkpt lat="47.69823" lon="-2.37965">
        <ele>44</ele>
        <time>2012-05-25T08:05:31</time>
      </trkpt>
      <trkpt lat="47.6985" lon="-2.37993">
        <ele>46</ele>
        <time>2012-05-25T08:06:01</time>
      </trkpt>
      <trkpt lat="47.69862" lon="-2.38012">
        <ele>45</ele>
        <time>2012-05-25T08:06:31</time>
      </trkpt>
      <trkpt lat="47.69874" lon="-2.38053">
        <ele>46</ele>
        <time>2012-05-25T08:07:02</time>
      </trkpt>
      <trkpt lat="47.69911" lon="-2.38064">
        <ele>46</ele>
        <time>2012-05-25T08:07:32</time>
      </trkpt>
      <trkpt lat="47.69946" lon="-2.38079">
        <ele>46</ele>
        <time>2012-05-25T08:08:02</time>
      </trkpt>
      <trkpt lat="47.69972" lon="-2.38112">
        <ele>47</ele>
        <time>2012-05-25T08:08:32</time>
      </trkpt>
      <trkpt lat="47.70007" lon="-2.38119">
        <ele>45</ele>
        <time>2012-05-25T08:09:02</time>
      </trkpt>
      <trkpt lat="47.70046" lon="-2.38112">
        <ele>44</ele>
        <time>2012-05-25T08:09:32</time>
      </trkpt>
      <trkpt lat="47.70084" lon="-2.38104">
        <ele>43</ele>
        <time>2012-05-25T08:10:03</time>
      </trkpt>
      <trkpt lat="47.70119" lon="-2.38098">
        <ele>42</ele>
        <time>2012-05-25T08:10:33</time>
      </trkpt>
      <trkpt lat="47.70156" lon="-2.38093">
        <ele>40</ele>
        <time>2012-05-25T08:11:03</time>
      </trkpt>
      <trkpt lat="47.70192" lon="-2.38086">
        <ele>37</ele>
        <time>2012-05-25T08:11:33</time>
      </trkpt>
      <trkpt lat="47.70214" lon="-2.38122">
        <ele>37</ele>
        <time>2012-05-25T08:12:03</time>
      </trkpt>
      <trkpt lat="47.70228" lon="-2.3817">
        <ele>36</ele>
        <time>2012-05-25T08:12:33</time>
      </trkpt>
      <trkpt lat="47.7024" lon="-2.38217">
        <ele>35</ele>
        <time>2012-05-25T08:13:04</time>
      </trkpt>
      <trkpt lat="47.70253" lon="-2.38271">
        <ele>35</ele>
        <time>2012-05-25T08:13:34</time>
      </trkpt>
      <trkpt lat="47.70269" lon="-2.38317">
        <ele>36</ele>
        <time>2012-05-25T08:14:04</time>
      </trkpt>
      <trkpt lat="47.70277" lon="-2.38364">
        <ele>35</ele>
        <time>2012-05-25T08:14:34</time>
      </trkpt>
      <trkpt lat="47.70294" lon="-2.38423">
        <ele>35</ele>
        <time>2012-05-25T08:15:04</time>
      </trkpt>
      <trkpt lat="47.7031" lon="-2.38472">
        <ele>37</ele>
        <time>2012-05-25T08:15:35</time>
      </trkpt>
      <trkpt lat="47.70327" lon="-2.3852">
        <ele>38</ele>
        <time>2012-05-25T08:16:05</time>
      </trkpt>
      <trkpt lat="47.70341" lon="-2.38564">
        <ele>40</ele>
        <time>2012-05-25T08:16:35</time>
      </trkpt>
      <trkpt lat="47.70357" lon="-2.38611">
        <ele>43</ele>
        <time>2012-05-25T08:17:05</time>
      </trkpt>
      <trkpt lat="47.70372" lon="-2.38659">
        <ele>45</ele>
        <time>2012-05-25T08:17:36</time>
      </trkpt>
      <trkpt lat="47.70384" lon="-2.38708">
        <ele>48</ele>
        <time>2012-05-25T08:18:06</time>
      </trkpt>
      <trkpt lat="47.70403" lon="-2.38741">
        <ele>51</ele>
        <time>2012-05-25T08:18:36</time>
      </trkpt>
      <trkpt lat="47.70433" lon="-2.38736">
        <ele>52</ele>
        <time>2012-05-25T08:19:06</time>
      </trkpt>
      <trkpt lat="47.70466" lon="-2.38723">
        <ele>53</ele>
        <time>2012-05-25T08:19:36</time>
      </trkpt>
      <trkpt lat="47.70499" lon="-2.38716">
        <ele>55</ele>
        <time>2012-05-25T08:20:06</time>
      </trkpt>
      <trkpt lat="47.70531" lon="-2.38704">
        <ele>55</ele>
        <time>2012-05-25T08:20:37</time>
      </trkpt>
      <trkpt lat="47.7056" lon="-2.38672">
        <ele>54</ele>
        <time>2012-05-25T08:21:07</time>
      </trkpt>
      <trkpt lat="47.70575" lon="-2.38656">
        <ele>54</ele>
        <time>2012-05-25T08:21:37</time>
      </trkpt>
      <trkpt lat="47.70586" lon="-2.38651">
        <ele>53</ele>
        <time>2012-05-25T08:22:07</time>
      </trkpt>
      <trkpt lat="47.70607" lon="-2.38612">
        <ele>53</ele>
        <time>2012-05-25T08:22:37</time>
      </trkpt>
      <trkpt lat="47.70626" lon="-2.38565">
        <ele>51</ele>
        <time>2012-05-25T08:23:07</time>
      </trkpt>
      <trkpt lat="47.70647" lon="-2.38532">
        <ele>50</ele>
        <time>2012-05-25T08:23:38</time>
      </trkpt>
      <trkpt lat="47.70654" lon="-2.38508">
        <ele>50</ele>
        <time>2012-05-25T08:24:08</time>
      </trkpt>
      <trkpt lat="47.70652" lon="-2.38512">
        <ele>51</ele>
        <time>2012-05-25T08:24:38</time>
      </trkpt>
      <trkpt lat="47.70656" lon="-2.38516">
        <ele>51</ele>
        <time>2012-05-25T08:25:08</time>
      </trkpt>
      <trkpt lat="47.70666" lon="-2.38477">
        <ele>50</ele>
        <time>2012-05-25T08:25:38</time>
      </trkpt>
      <trkpt lat="47.7067" lon="-2.38424">
        <ele>51</ele>
        <time>2012-05-25T08:26:08</time>
      </trkpt>
      <trkpt lat="47.70673" lon="-2.38367">
        <ele>50</ele>
        <time>2012-05-25T08:26:39</time>
      </trkpt>
      <trkpt lat="47.70686" lon="-2.38318">
        <ele>51</ele>
        <time>2012-05-25T08:27:09</time>
      </trkpt>
      <trkpt lat="47.70697" lon="-2.38265">
        <ele>51</ele>
        <time>2012-05-25T08:27:39</time>
      </trkpt>
      <trkpt lat="47.70704" lon="-2.3821">
        <ele>51</ele>
        <time>2012-05-25T08:28:09</time>
      </trkpt>
      <trkpt lat="47.70707" lon="-2.38156">
        <ele>52</ele>
        <time>2012-05-25T08:28:39</time>
      </trkpt>
      <trkpt lat="47.70724" lon="-2.38126">
        <ele>54</ele>
        <time>2012-05-25T08:29:09</time>
      </trkpt>
      <trkpt lat="47.70741" lon="-2.38077">
        <ele>55</ele>
        <time>2012-05-25T08:29:40</time>
      </trkpt>
      <trkpt lat="47.70751" lon="-2.38024">
        <ele>55</ele>
        <time>2012-05-25T08:30:10</time>
      </trkpt>
      <trkpt lat="47.70763" lon="-2.37972">
        <ele>54</ele>
        <time>2012-05-25T08:30:40</time>
      </trkpt>
      <trkpt lat="47.7076" lon="-2.37923">
        <ele>54</ele>
        <time>2012-05-25T08:31:10</time>
      </trkpt>
      <trkpt lat="47.70757" lon="-2.37864">
        <ele>54</ele>
        <time>2012-05-25T08:31:40</time>
      </trkpt>
      <trkpt lat="47.70751" lon="-2.37813">
        <ele>53</ele>
        <time>2012-05-25T08:32:11</time>
      </trkpt>
      <trkpt lat="47.70741" lon="-2.37758">
        <ele>55</ele>
        <time>2012-05-25T08:32:41</time>
      </trkpt>
      <trkpt lat="47.70738" lon="-2.37707">
        <ele>55</ele>
        <time>2012-05-25T08:33:11</time>
      </trkpt>
      <trkpt lat="47.70735" lon="-2.37656">
        <ele>55</ele>
        <time>2012-05-25T08:33:41</time>
      </trkpt>
      <trkpt lat="47.7073" lon="-2.37599">
        <ele>56</ele>
        <time>2012-05-25T08:34:11</time>
      </trkpt>
      <trkpt lat="47.70726" lon="-2.37547">
        <ele>55</ele>
        <time>2012-05-25T08:34:41</time>
      </trkpt>
      <trkpt lat="47.7073" lon="-2.37497">
        <ele>55</ele>
        <time>2012-05-25T08:35:12</time>
      </trkpt>
      <trkpt lat="47.70739" lon="-2.37446">
        <ele>56</ele>
        <time>2012-05-25T08:35:42</time>
      </trkpt>
      <trkpt lat="47.70746" lon="-2.37393">
        <ele>57</ele>
        <time>2012-05-25T08:36:12</time>
      </trkpt>
      <trkpt lat="47.70758" lon="-2.37346">
        <ele>58</ele>
        <time>2012-05-25T08:36:42</time>
      </trkpt>
      <trkpt lat="47.70755" lon="-2.37297">
        <ele>60</ele>
        <time>2012-05-25T08:37:12</time>
      </trkpt>
      <trkpt lat="47.70752" lon="-2.37278">
        <ele>59</ele>
        <time>2012-05-25T08:37:42</time>
      </trkpt>
      <trkpt lat="47.70749" lon="-2.37244">
        <ele>58</ele>
        <time>2012-05-25T08:38:13</time>
      </trkpt>
      <trkpt lat="47.70742" lon="-2.3719">
        <ele>57</ele>
        <time>2012-05-25T08:38:43</time>
      </trkpt>
      <trkpt lat="47.70741" lon="-2.37135">
        <ele>55</ele>
        <time>2012-05-25T08:39:13</time>
      </trkpt>
      <trkpt lat="47.70735" lon="-2.37102">
        <ele>55</ele>
        <time>2012-05-25T08:39:43</time>
      </trkpt>
      <trkpt lat="47.70719" lon="-2.37054">
        <ele>52</ele>
        <time>2012-05-25T08:40:13</time>
      </trkpt>
      <trkpt lat="47.70712" lon="-2.36999">
        <ele>50</ele>
        <time>2012-05-25T08:40:44</time>
      </trkpt>
      <trkpt lat="47.70705" lon="-2.3695">
        <ele>48</ele>
        <time>2012-05-25T08:41:14</time>
      </trkpt>
      <trkpt lat="47.70687" lon="-2.36912">
        <ele>45</ele>
        <time>2012-05-25T08:41:44</time>
      </trkpt>
      <trkpt lat="47.70679" lon="-2.36869">
        <ele>43</ele>
        <time>2012-05-25T08:42:14</time>
      </trkpt>
      <trkpt lat="47.70677" lon="-2.3682">
        <ele>43</ele>
        <time>2012-05-25T08:42:44</time>
      </trkpt>
      <trkpt lat="47.70664" lon="-2.36762">
        <ele>42</ele>
        <time>2012-05-25T08:43:14</time>
      </trkpt>
      <trkpt lat="47.70653" lon="-2.36705">
        <ele>39</ele>
        <time>2012-05-25T08:43:45</time>
      </trkpt>
      <trkpt lat="47.70641" lon="-2.36652">
        <ele>37</ele>
        <time>2012-05-25T08:44:15</time>
      </trkpt>
      <trkpt lat="47.70633" lon="-2.36601">
        <ele>36</ele>
        <time>2012-05-25T08:44:45</time>
      </trkpt>
      <trkpt lat="47.70621" lon="-2.36543">
        <ele>36</ele>
        <time>2012-05-25T08:45:15</time>
      </trkpt>
      <trkpt lat="47.70608" lon="-2.36486">
        <ele>35</ele>
        <time>2012-05-25T08:45:45</time>
      </trkpt>
      <trkpt lat="47.70594" lon="-2.36428">
        <ele>35</ele>
        <time>2012-05-25T08:46:15</time>
      </trkpt>
      <trkpt lat="47.70581" lon="-2.36374">
        <ele>33</ele>
        <time>2012-05-25T08:46:46</time>
      </trkpt>
      <trkpt lat="47.7057" lon="-2.36318">
        <ele>33</ele>
        <time>2012-05-25T08:47:16</time>
      </trkpt>
      <trkpt lat="47.70561" lon="-2.36259">
        <ele>32</ele>
        <time>2012-05-25T08:47:46</time>
      </trkpt>
      <trkpt lat="47.70555" lon="-2.36219">
        <ele>33</ele>
        <time>2012-05-25T08:48:16</time>
      </trkpt>
      <trkpt lat="47.70552" lon="-2.36173">
        <ele>33</ele>
        <time>2012-05-25T08:48:46</time>
      </trkpt>
      <trkpt lat="47.70545" lon="-2.3612">
        <ele>35</ele>
        <time>2012-05-25T08:49:17</time>
      </trkpt>
      <trkpt lat="47.70529" lon="-2.3606">
        <ele>34</ele>
        <time>2012-05-25T08:49:47</time>
      </trkpt>
      <trkpt lat="47.70499" lon="-2.36022">
        <ele>32</ele>
        <time>2012-05-25T08:50:17</time>
      </trkpt>
      <trkpt lat="47.70488" lon="-2.35978">
        <ele>28</ele>
        <time>2012-05-25T08:50:47</time>
      </trkpt>
      <trkpt lat="47.70482" lon="-2.3593">
        <ele>28</ele>
        <time>2012-05-25T08:51:17</time>
      </trkpt>
      <trkpt lat="47.70471" lon="-2.35879">
        <ele>28</ele>
        <time>2012-05-25T08:51:48</time>
      </trkpt>
      <trkpt lat="47.70461" lon="-2.35827">
        <ele>26</ele>
        <time>2012-05-25T08:52:18</time>
      </trkpt>
      <trkpt lat="47.70456" lon="-2.35798">
        <ele>25</ele>
        <time>2012-05-25T08:52:48</time>
      </trkpt>
      <trkpt lat="47.70454" lon="-2.35786">
        <ele>26</ele>
        <time>2012-05-25T08:53:18</time>
      </trkpt>
      <trkpt lat="47.7045" lon="-2.35753">
        <ele>25</ele>
        <time>2012-05-25T08:53:48</time>
      </trkpt>
      <trkpt lat="47.70443" lon="-2.35701">
        <ele>25</ele>
        <time>2012-05-25T08:54:19</time>
      </trkpt>
      <trkpt lat="47.70433" lon="-2.35647">
        <ele>23</ele>
        <time>2012-05-25T08:54:49</time>
      </trkpt>
      <trkpt lat="47.70423" lon="-2.35597">
        <ele>21</ele>
        <time>2012-05-25T08:55:19</time>
      </trkpt>
      <trkpt lat="47.70416" lon="-2.35538">
        <ele>20</ele>
        <time>2012-05-25T08:55:49</time>
      </trkpt>
      <trkpt lat="47.70407" lon="-2.3548">
        <ele>19</ele>
        <time>2012-05-25T08:56:19</time>
      </trkpt>
      <trkpt lat="47.70408" lon="-2.35424">
        <ele>18</ele>
        <time>2012-05-25T08:56:49</time>
      </trkpt>
      <trkpt lat="47.70407" lon="-2.35367">
        <ele>19</ele>
        <time>2012-05-25T08:57:20</time>
      </trkpt>
      <trkpt lat="47.70405" lon="-2.35309">
        <ele>18</ele>
        <time>2012-05-25T08:57:50</time>
      </trkpt>
      <trkpt lat="47.70409" lon="-2.35275">
        <ele>18</ele>
        <time>2012-05-25T08:58:20</time>
      </trkpt>
      <trkpt lat="47.70407" lon="-2.35267">
        <ele>18</ele>
        <time>2012-05-25T08:58:50</time>
      </trkpt>
      <trkpt lat="47.70406" lon="-2.35268">
        <ele>19</ele>
        <time>2012-05-25T08:59:20</time>
      </trkpt>
      <trkpt lat="47.70409" lon="-2.35272">
        <ele>18</ele>
        <time>2012-05-25T08:59:50</time>
      </trkpt>
      <trkpt lat="47.70401" lon="-2.35276">
        <ele>17</ele>
        <time>2012-05-25T09:00:21</time>
      </trkpt>
      <trkpt lat="47.704" lon="-2.35258">
        <ele>18</ele>
        <time>2012-05-25T09:00:51</time>
      </trkpt>
      <trkpt lat="47.70395" lon="-2.35246">
        <ele>18</ele>
        <time>2012-05-25T09:01:21</time>
      </trkpt>
      <trkpt lat="47.70391" lon="-2.35252">
        <ele>18</ele>
        <time>2012-05-25T09:01:51</time>
      </trkpt>
      <trkpt lat="47.70376" lon="-2.35252">
        <ele>17</ele>
        <time>2012-05-25T09:02:21</time>
      </trkpt>
      <trkpt lat="47.7035" lon="-2.35249">
        <ele>16</ele>
        <time>2012-05-25T09:02:52</time>
      </trkpt>
      <trkpt lat="47.70323" lon="-2.35226">
        <ele>17</ele>
        <time>2012-05-25T09:03:22</time>
      </trkpt>
      <trkpt lat="47.70295" lon="-2.35239">
        <ele>19</ele>
        <time>2012-05-25T09:03:52</time>
      </trkpt>
      <trkpt lat="47.70269" lon="-2.35272">
        <ele>22</ele>
        <time>2012-05-25T09:04:22</time>
      </trkpt>
      <trkpt lat="47.70245" lon="-2.35296">
        <ele>22</ele>
        <time>2012-05-25T09:04:52</time>
      </trkpt>
      <trkpt lat="47.70237" lon="-2.3532">
        <ele>25</ele>
        <time>2012-05-25T09:05:22</time>
      </trkpt>
      <trkpt lat="47.70219" lon="-2.35329">
        <ele>27</ele>
        <time>2012-05-25T09:05:53</time>
      </trkpt>
      <trkpt lat="47.70188" lon="-2.3533">
        <ele>28</ele>
        <time>2012-05-25T09:06:23</time>
      </trkpt>
      <trkpt lat="47.70154" lon="-2.35345">
        <ele>28</ele>
        <time>2012-05-25T09:06:53</time>
      </trkpt>
      <trkpt lat="47.70128" lon="-2.35383">
        <ele>30</ele>
        <time>2012-05-25T09:07:23</time>
      </trkpt>
      <trkpt lat="47.701" lon="-2.35412">
        <ele>29</ele>
        <time>2012-05-25T09:07:53</time>
      </trkpt>
      <trkpt lat="47.7006" lon="-2.35427">
        <ele>30</ele>
        <time>2012-05-25T09:08:23</time>
      </trkpt>
      <trkpt lat="47.70044" lon="-2.35396">
        <ele>32</ele>
        <time>2012-05-25T09:08:54</time>
      </trkpt>
      <trkpt lat="47.70026" lon="-2.35361">
        <ele>32</ele>
        <time>2012-05-25T09:09:24</time>
      </trkpt>
      <trkpt lat="47.69987" lon="-2.35347">
        <ele>34</ele>
        <time>2012-05-25T09:09:54</time>
      </trkpt>
      <trkpt lat="47.69955" lon="-2.35345">
        <ele>36</ele>
        <time>2012-05-25T09:10:24</time>
      </trkpt>
      <trkpt lat="47.6992" lon="-2.35351">
        <ele>37</ele>
        <time>2012-05-25T09:10:54</time>
      </trkpt>
      <trkpt lat="47.69884" lon="-2.35352">
        <ele>39</ele>
        <time>2012-05-25T09:11:24</time>
      </trkpt>
      <trkpt lat="47.69847" lon="-2.35344">
        <ele>41</ele>
        <time>2012-05-25T09:11:55</time>
      </trkpt>
      <trkpt lat="47.69812" lon="-2.35338">
        <ele>42</ele>
        <time>2012-05-25T09:12:25</time>
      </trkpt>
      <trkpt lat="47.69773" lon="-2.35333">
        <ele>44</ele>
        <time>2012-05-25T09:12:55</time>
      </trkpt>
      <trkpt lat="47.69762" lon="-2.35331">
        <ele>45</ele>
        <time>2012-05-25T09:13:25</time>
      </trkpt>
      <trkpt lat="47.69759" lon="-2.3533">
        <ele>44</ele>
        <time>2012-05-25T09:13:55</time>
      </trkpt>
      <trkpt lat="47.69756" lon="-2.35338">
        <ele>44</ele>
        <time>2012-05-25T09:14:26</time>
      </trkpt>
      <trkpt lat="47.69754" lon="-2.3534">
        <ele>45</ele>
        <time>2012-05-25T09:14:56</time>
      </trkpt>
      <trkpt lat="47.69751" lon="-2.35338">
        <ele>46</ele>
        <time>2012-05-25T09:15:26</time>
      </trkpt>
      <trkpt lat="47.69736" lon="-2.35335">
        <ele>46</ele>
        <time>2012-05-25T09:15:56</time>
      </trkpt>
      <trkpt lat="47.69709" lon="-2.35325">
        <ele>46</ele>
        <time>2012-05-25T09:16:26</time>
      </trkpt>
      <trkpt lat="47.69679" lon="-2.35316">
        <ele>48</ele>
        <time>2012-05-25T09:16:57</time>
      </trkpt>
      <trkpt lat="47.69638" lon="-2.35306">
        <ele>49</ele>
        <time>2012-05-25T09:17:27</time>
      </trkpt>
      <trkpt lat="47.69603" lon="-2.35306">
        <ele>50</ele>
        <time>2012-05-25T09:17:57</time>
      </trkpt>
      <trkpt lat="47.69569" lon="-2.35312">
        <ele>51</ele>
        <time>2012-05-25T09:18:27</time>
      </trkpt>
      <trkpt lat="47.69534" lon="-2.35326">
        <ele>52</ele>
        <time>2012-05-25T09:18:57</time>
      </trkpt>
      <trkpt lat="47.69493" lon="-2.35331">
        <ele>52</ele>
        <time>2012-05-25T09:19:28</time>
      </trkpt>
      <trkpt lat="47.69463" lon="-2.35319">
        <ele>54</ele>
        <time>2012-05-25T09:19:58</time>
      </trkpt>
      <trkpt lat="47.69431" lon="-2.35295">
        <ele>54</ele>
        <time>2012-05-25T09:20:28</time>
      </trkpt>
      <trkpt lat="47.69402" lon="-2.35264">
        <ele>53</ele>
        <time>2012-05-25T09:20:58</time>
      </trkpt>
      <trkpt lat="47.69375" lon="-2.35226">
        <ele>52</ele>
        <time>2012-05-25T09:21:28</time>
      </trkpt>
      <trkpt lat="47.69356" lon="-2.35189">
        <ele>50</ele>
        <time>2012-05-25T09:21:58</time>
      </trkpt>
      <trkpt lat="47.69344" lon="-2.35147">
        <ele>45</ele>
        <time>2012-05-25T09:22:29</time>
      </trkpt>
      <trkpt lat="47.69333" lon="-2.35109">
        <ele>42</ele>
        <time>2012-05-25T09:22:59</time>
      </trkpt>
      <trkpt lat="47.6932" lon="-2.35065">
        <ele>36</ele>
        <time>2012-05-25T09:23:29</time>
      </trkpt>
      <trkpt lat="47.69309" lon="-2.3502">
        <ele>32</ele>
        <time>2012-05-25T09:23:59</time>
      </trkpt>
      <trkpt lat="47.69277" lon="-2.34991">
        <ele>31</ele>
        <time>2012-05-25T09:24:29</time>
      </trkpt>
      <trkpt lat="47.69239" lon="-2.3498">
        <ele>27</ele>
        <time>2012-05-25T09:24:59</time>
      </trkpt>
      <trkpt lat="47.69209" lon="-2.34982">
        <ele>24</ele>
        <time>2012-05-25T09:25:30</time>
      </trkpt>
      <trkpt lat="47.6921" lon="-2.34987">
        <ele>25</ele>
        <time>2012-05-25T09:26:00</time>
      </trkpt>
      <trkpt lat="47.69224" lon="-2.34987">
        <ele>25</ele>
        <time>2012-05-25T09:26:30</time>
      </trkpt>
      <trkpt lat="47.69215" lon="-2.3499">
        <ele>25</ele>
        <time>2012-05-25T09:27:00</time>
      </trkpt>
      <trkpt lat="47.69201" lon="-2.35003">
        <ele>26</ele>
        <time>2012-05-25T09:27:30</time>
      </trkpt>
      <trkpt lat="47.69186" lon="-2.35015">
        <ele>26</ele>
        <time>2012-05-25T09:28:00</time>
      </trkpt>
      <trkpt lat="47.69187" lon="-2.35011">
        <ele>26</ele>
        <time>2012-05-25T09:28:31</time>
      </trkpt>
      <trkpt lat="47.69192" lon="-2.34998">
        <ele>25</ele>
        <time>2012-05-25T09:29:01</time>
      </trkpt>
      <trkpt lat="47.69195" lon="-2.35">
        <ele>25</ele>
        <time>2012-05-25T09:29:31</time>
      </trkpt>
      <trkpt lat="47.69195" lon="-2.35003">
        <ele>26</ele>
        <time>2012-05-25T09:30:01</time>
      </trkpt>
      <trkpt lat="47.69194" lon="-2.35016">
        <ele>25</ele>
        <time>2012-05-25T09:30:31</time>
      </trkpt>
      <trkpt lat="47.69202" lon="-2.35044">
        <ele>26</ele>
        <time>2012-05-25T09:31:02</time>
      </trkpt>
      <trkpt lat="47.692" lon="-2.35092">
        <ele>27</ele>
        <time>2012-05-25T09:31:32</time>
      </trkpt>
      <trkpt lat="47.69193" lon="-2.35142">
        <ele>25</ele>
        <time>2012-05-25T09:32:02</time>
      </trkpt>
      <trkpt lat="47.6918" lon="-2.35199">
        <ele>26</ele>
        <time>2012-05-25T09:32:32</time>
      </trkpt>
      <trkpt lat="47.69172" lon="-2.35252">
        <ele>26</ele>
        <time>2012-05-25T09:33:02</time>
      </trkpt>
      <trkpt lat="47.69172" lon="-2.35303">
        <ele>26</ele>
        <time>2012-05-25T09:33:33</time>
      </trkpt>
      <trkpt lat="47.6917" lon="-2.35353">
        <ele>28</ele>
        <time>2012-05-25T09:34:03</time>
      </trkpt>
      <trkpt lat="47.69156" lon="-2.35386">
        <ele>23</ele>
        <time>2012-05-25T09:34:33</time>
      </trkpt>
      <trkpt lat="47.69142" lon="-2.35435">
        <ele>23</ele>
        <time>2012-05-25T09:35:03</time>
      </trkpt>
      <trkpt lat="47.69116" lon="-2.35463">
        <ele>23</ele>
        <time>2012-05-25T09:35:33</time>
      </trkpt>
      <trkpt lat="47.69092" lon="-2.35504">
        <ele>23</ele>
        <time>2012-05-25T09:36:03</time>
      </trkpt>
      <trkpt lat="47.6907" lon="-2.35544">
        <ele>23</ele>
        <time>2012-05-25T09:36:34</time>
      </trkpt>
      <trkpt lat="47.69049" lon="-2.35591">
        <ele>24</ele>
        <time>2012-05-25T09:37:04</time>
      </trkpt>
      <trkpt lat="47.69033" lon="-2.35642">
        <ele>24</ele>
        <time>2012-05-25T09:37:34</time>
      </trkpt>
      <trkpt lat="47.69014" lon="-2.35693">
        <ele>23</ele>
        <time>2012-05-25T09:38:04</time>
      </trkpt>
      <trkpt lat="47.68998" lon="-2.35746">
        <ele>22</ele>
        <time>2012-05-25T09:38:34</time>
      </trkpt>
      <trkpt lat="47.6899" lon="-2.35799">
        <ele>22</ele>
        <time>2012-05-25T09:39:04</time>
      </trkpt>
      <trkpt lat="47.68975" lon="-2.35849">
        <ele>22</ele>
        <time>2012-05-25T09:39:35</time>
      </trkpt>
      <trkpt lat="47.68987" lon="-2.35853">
        <ele>23</ele>
        <time>2012-05-25T09:40:05</time>
      </trkpt>
      <trkpt lat="47.68991" lon="-2.35889">
        <ele>23</ele>
        <time>2012-05-25T09:40:35</time>
      </trkpt>
      <trkpt lat="47.68985" lon="-2.35938">
        <ele>24</ele>
        <time>2012-05-25T09:41:05</time>
      </trkpt>
      <trkpt lat="47.68974" lon="-2.35997">
        <ele>26</ele>
        <time>2012-05-25T09:41:35</time>
      </trkpt>
      <trkpt lat="47.68972" lon="-2.36045">
        <ele>27</ele>
        <time>2012-05-25T09:42:06</time>
      </trkpt>
      <trkpt lat="47.68977" lon="-2.36098">
        <ele>29</ele>
        <time>2012-05-25T09:42:36</time>
      </trkpt>
      <trkpt lat="47.68991" lon="-2.36143">
        <ele>31</ele>
        <time>2012-05-25T09:43:06</time>
      </trkpt>
      <trkpt lat="47.68997" lon="-2.36165">
        <ele>31</ele>
        <time>2012-05-25T09:43:36</time>
      </trkpt>
      <trkpt lat="47.68996" lon="-2.36185">
        <ele>30</ele>
        <time>2012-05-25T09:44:06</time>
      </trkpt>
      <trkpt lat="47.69001" lon="-2.36221">
        <ele>30</ele>
        <time>2012-05-25T09:44:37</time>
      </trkpt>
      <trkpt lat="47.69011" lon="-2.36267">
        <ele>30</ele>
        <time>2012-05-25T09:45:07</time>
      </trkpt>
      <trkpt lat="47.69016" lon="-2.36314">
        <ele>30</ele>
        <time>2012-05-25T09:45:37</time>
      </trkpt>
      <trkpt lat="47.6902" lon="-2.36357">
        <ele>30</ele>
        <time>2012-05-25T09:46:07</time>
      </trkpt>
      <trkpt lat="47.69024" lon="-2.36403">
        <ele>31</ele>
        <time>2012-05-25T09:46:37</time>
      </trkpt>
      <trkpt lat="47.69029" lon="-2.36448">
        <ele>32</ele>
        <time>2012-05-25T09:47:08</time>
      </trkpt>
      <trkpt lat="47.69043" lon="-2.36489">
        <ele>35</ele>
        <time>2012-05-25T09:47:38</time>
      </trkpt>
      <trkpt lat="47.69049" lon="-2.3653">
        <ele>34</ele>
        <time>2012-05-25T09:48:08</time>
      </trkpt>
      <trkpt lat="47.69062" lon="-2.36576">
        <ele>35</ele>
        <time>2012-05-25T09:48:38</time>
      </trkpt>
      <trkpt lat="47.69084" lon="-2.36624">
        <ele>37</ele>
        <time>2012-05-25T09:49:08</time>
      </trkpt>
      <trkpt lat="47.69107" lon="-2.36673">
        <ele>37</ele>
        <time>2012-05-25T09:49:39</time>
      </trkpt>
      <trkpt lat="47.69123" lon="-2.36722">
        <ele>38</ele>
        <time>2012-05-25T09:50:09</time>
      </trkpt>
      <trkpt lat="47.69138" lon="-2.36774">
        <ele>37</ele>
        <time>2012-05-25T09:50:39</time>
      </trkpt>
      <trkpt lat="47.6916" lon="-2.36818">
        <ele>37</ele>
        <time>2012-05-25T09:51:09</time>
      </trkpt>
      <trkpt lat="47.69178" lon="-2.36848">
        <ele>37</ele>
        <time>2012-05-25T09:51:39</time>
      </trkpt>
      <trkpt lat="47.69193" lon="-2.36873">
        <ele>34</ele>
        <time>2012-05-25T09:52:09</time>
      </trkpt>
      <trkpt lat="47.69222" lon="-2.36899">
        <ele>32</ele>
        <time>2012-05-25T09:52:40</time>
      </trkpt>
      <trkpt lat="47.69263" lon="-2.36896">
        <ele>33</ele>
        <time>2012-05-25T09:53:10</time>
      </trkpt>
      <trkpt lat="47.69287" lon="-2.36854">
        <ele>36</ele>
        <time>2012-05-25T09:53:40</time>
      </trkpt>
      <trkpt lat="47.69301" lon="-2.36814">
        <ele>41</ele>
        <time>2012-05-25T09:54:10</time>
      </trkpt>
      <trkpt lat="47.69318" lon="-2.36765">
        <ele>44</ele>
        <time>2012-05-25T09:54:40</time>
      </trkpt>
      <trkpt lat="47.69334" lon="-2.3672">
        <ele>46</ele>
        <time>2012-05-25T09:55:11</time>
      </trkpt>
      <trkpt lat="47.69355" lon="-2.36679">
        <ele>48</ele>
        <time>2012-05-25T09:55:41</time>
      </trkpt>
      <trkpt lat="47.69374" lon="-2.36651">
        <ele>48</ele>
        <time>2012-05-25T09:56:11</time>
      </trkpt>
      <trkpt lat="47.69362" lon="-2.36615">
        <ele>51</ele>
        <time>2012-05-25T09:56:41</time>
      </trkpt>
      <trkpt lat="47.69353" lon="-2.36573">
        <ele>54</ele>
        <time>2012-05-25T09:57:11</time>
      </trkpt>
      <trkpt lat="47.69341" lon="-2.36533">
        <ele>57</ele>
        <time>2012-05-25T09:57:42</time>
      </trkpt>
      <trkpt lat="47.69342" lon="-2.36492">
        <ele>58</ele>
        <time>2012-05-25T09:58:12</time>
      </trkpt>
      <trkpt lat="47.69364" lon="-2.36472">
        <ele>56</ele>
        <time>2012-05-25T09:58:42</time>
      </trkpt>
      <trkpt lat="47.69387" lon="-2.3646">
        <ele>54</ele>
        <time>2012-05-25T09:59:12</time>
      </trkpt>
      <trkpt lat="47.69418" lon="-2.36447">
        <ele>54</ele>
        <time>2012-05-25T09:59:42</time>
      </trkpt>
      <trkpt lat="47.69455" lon="-2.36435">
        <ele>52</ele>
        <time>2012-05-25T10:00:12</time>
      </trkpt>
      <trkpt lat="47.69493" lon="-2.36417">
        <ele>51</ele>
        <time>2012-05-25T10:00:43</time>
      </trkpt>
      <trkpt lat="47.6953" lon="-2.36399">
        <ele>52</ele>
        <time>2012-05-25T10:01:13</time>
      </trkpt>
      <trkpt lat="47.69559" lon="-2.36388">
        <ele>53</ele>
        <time>2012-05-25T10:01:43</time>
      </trkpt>
      <trkpt lat="47.69583" lon="-2.36373">
        <ele>56</ele>
        <time>2012-05-25T10:02:07</time>
      </trkpt>
    </trkseg>
  </trk>
</gpx>